Time;durP1;ratioP1;P1;durP2;ratioP2;P2;SDS_P1;SDS_P2;PMS_P1;PMS_P2;Temp;Humidity;BMP_temperature;BMP_pressure;BME280_temperature;BME280_humidity;BME280_pressure;Samples;Min_cycle;Max_cycle;Signal;HPM_P1;HPM_P2
2021/10/15 00:01:40;;;;;;;;;39.00;31.50;;;;;10.45;71.64;101805.22;5032859;28;45309;-70
2021/10/15 00:04:05;;;;;;;;;32.25;28.75;;;;;10.42;72.01;101802.66;5032901;28;48757;-70
2021/10/15 00:06:31;;;;;;;;;25.75;24.25;;;;;10.31;71.67;101781.06;5033824;28;45393;-70
2021/10/15 00:08:56;;;;;;;;;34.75;28.00;;;;;10.37;72.04;101791.41;5032884;28;45439;-70
2021/10/15 00:11:21;;;;;;;;;32.50;27.00;;;;;10.32;71.88;101783.66;5032684;28;50871;-70
2021/10/15 00:13:47;;;;;;;;;34.00;29.75;;;;;10.34;72.21;101791.50;5032579;28;46096;-70
2021/10/15 00:16:12;;;;;;;;;33.50;29.00;;;;;10.33;72.29;101785.34;5033392;28;45526;-70
2021/10/15 00:18:37;;;;;;;;;34.50;30.50;;;;;10.33;71.92;101787.13;5041542;28;45532;-70
2021/10/15 00:21:03;;;;;;;;;27.50;26.25;;;;;10.33;72.24;101798.50;5034844;28;49518;-70
2021/10/15 00:23:28;;;;;;;;;32.25;28.25;;;;;10.32;72.56;101795.91;5032272;28;46148;-70
2021/10/15 00:25:53;;;;;;;;;30.25;26.75;;;;;10.30;72.33;101801.22;5032886;28;45374;-70
2021/10/15 00:28:19;;;;;;;;;36.75;32.75;;;;;10.21;72.19;101783.03;5036067;28;45347;-70
2021/10/15 00:30:44;;;;;;;;;33.50;28.50;;;;;10.21;72.62;101785.66;5036757;28;45435;-70
2021/10/15 00:33:09;;;;;;;;;28.00;27.75;;;;;10.26;72.54;101796.06;5034858;28;46054;-70
2021/10/15 00:35:35;;;;;;;;;31.00;27.25;;;;;10.20;72.71;101782.16;5036144;28;45461;-70
2021/10/15 00:38:00;;;;;;;;;36.25;32.00;;;;;10.19;72.36;101783.06;5017970;28;45408;-70
2021/10/15 00:40:25;;;;;;;;;38.33;32.33;;;;;10.24;72.76;101796.13;5035484;28;47050;-70
2021/10/15 00:42:51;;;;;;;;;44.75;32.25;;;;;10.18;72.57;101783.13;5036393;28;45478;-70
2021/10/15 00:45:16;;;;;;;;;40.25;33.25;;;;;10.22;72.36;101792.63;5035325;28;45466;-70
2021/10/15 00:47:42;;;;;;;;;38.00;29.75;;;;;10.19;72.42;101798.81;5036365;28;45434;-70
2021/10/15 00:50:07;;;;;;;;;42.25;35.25;;;;;10.15;72.67;101794.53;5035808;28;45561;-70
2021/10/15 00:52:33;;;;;;;;;41.00;31.75;;;;;10.17;72.62;101795.34;5035637;28;45364;-70
2021/10/15 00:54:58;;;;;;;;;34.50;33.50;;;;;10.15;72.59;101794.53;5035922;28;45719;-71
2021/10/15 00:57:24;;;;;;;;;42.75;37.25;;;;;10.12;72.73;101791.13;5036259;28;45453;-70
2021/10/15 00:59:50;;;;;;;;;43.50;33.00;;;;;10.10;72.67;101793.78;5035873;28;45343;-70
2021/10/15 01:02:16;;;;;;;;;34.50;30.50;;;;;10.09;72.50;101791.22;5034309;28;45562;-70
2021/10/15 01:04:41;;;;;;;;;42.25;31.25;;;;;10.07;72.39;101790.34;5035244;28;45318;-70
2021/10/15 01:07:07;;;;;;;;;35.50;28.50;;;;;10.06;72.36;101783.38;5035393;28;47478;-70
2021/10/15 01:09:32;;;;;;;;;38.75;33.50;;;;;10.08;72.88;101781.59;5036729;28;45411;-70
2021/10/15 01:12:02;;;;;;;;;36.00;32.00;;;;;10.00;72.70;101773.03;5034966;28;46151;-70
2021/10/15 01:14:29;;;;;;;;;43.50;33.50;;;;;10.04;72.95;101777.31;5035417;28;45618;-70
2021/10/15 01:16:54;;;;;;;;;38.25;33.75;;;;;10.01;72.78;101777.38;5035811;28;45456;-71
2021/10/15 01:19:19;;;;;;;;;35.50;34.25;;;;;9.98;72.98;101778.34;5017361;28;45480;-70
2021/10/15 01:21:45;;;;;;;;;35.50;30.50;;;;;9.96;72.93;101774.88;5035847;28;45371;-70
2021/10/15 01:24:10;;;;;;;;;33.50;31.00;;;;;9.94;72.86;101772.28;5034862;28;45481;-70
2021/10/15 01:26:35;;;;;;;;;25.50;21.50;;;;;9.93;72.69;101780.19;5035496;28;45428;-70
2021/10/15 01:29:02;;;;;;;;;32.25;29.50;;;;;9.92;73.06;101773.22;5035836;28;45351;-70
2021/10/15 01:31:27;;;;;;;;;34.50;27.75;;;;;9.93;72.94;101764.44;5035191;28;46498;-70
2021/10/15 01:33:58;;;;;;;;;31.25;30.25;;;;;9.93;72.73;101764.44;5035279;28;45201;-70
2021/10/15 01:36:24;;;;;;;;;31.00;27.75;;;;;9.93;72.82;101761.81;5034666;28;45542;-70
2021/10/15 01:38:49;;;;;;;;;34.75;31.50;;;;;9.90;73.17;101749.63;5035524;28;45517;-70
2021/10/15 01:41:15;;;;;;;;;35.75;29.50;;;;;9.89;73.12;101754.91;5034971;28;46192;-70
2021/10/15 01:43:40;;;;;;;;;35.25;29.25;;;;;9.88;73.20;101751.44;5035227;28;45352;-70
2021/10/15 01:46:05;;;;;;;;;48.25;32.75;;;;;9.87;72.99;101743.59;5035324;28;45959;-70
2021/10/15 01:48:31;;;;;;;;;33.50;29.25;;;;;9.86;73.53;101744.47;5033716;28;45407;-70
2021/10/15 01:50:57;;;;;;;;;38.50;34.00;;;;;9.76;72.98;101738.59;5034833;28;45676;-70
2021/10/15 01:53:22;;;;;;;;;30.75;28.50;;;;;9.75;73.57;101739.47;5035129;28;45742;-70
2021/10/15 01:55:47;;;;;;;;;33.67;29.00;;;;;9.78;73.30;101741.19;5034151;28;45485;-70
2021/10/15 01:58:13;;;;;;;;;37.00;29.25;;;;;9.77;73.41;101745.56;5034945;28;45238;-70
2021/10/15 02:00:39;;;;;;;;;37.25;35.50;;;;;9.77;73.21;101740.31;5035470;28;46723;-70
2021/10/15 02:03:05;;;;;;;;;28.00;26.25;;;;;9.75;73.51;101743.88;5033848;28;45549;-70
2021/10/15 02:05:30;;;;;;;;;36.50;33.75;;;;;9.76;73.43;101745.59;5034704;28;45500;-70
2021/10/15 02:07:56;;;;;;;;;38.00;34.50;;;;;9.74;73.32;101737.75;5035319;28;45313;-70
2021/10/15 02:10:22;;;;;;;;;39.00;31.50;;;;;9.76;73.43;101740.34;5016595;28;47051;-70
2021/10/15 02:12:47;;;;;;;;;39.00;36.25;;;;;9.75;73.40;101739.47;5031099;28;45350;-70
2021/10/15 02:15:13;;;;;;;;;45.50;36.25;;;;;9.74;73.45;101731.66;5034514;28;45646;-70
2021/10/15 02:17:40;;;;;;;;;46.75;35.50;;;;;9.73;73.39;101735.19;5034509;28;45407;-70
2021/10/15 02:20:09;;;;;;;;;49.25;37.25;;;;;9.74;73.60;101731.66;5034256;28;46200;-70
2021/10/15 02:22:36;;;;;;;;;35.75;32.75;;;;;9.68;73.96;101732.66;5034616;28;45424;-70
2021/10/15 02:25:02;;;;;;;;;42.00;35.75;;;;;9.70;73.71;101730.84;5035156;28;45434;-70
2021/10/15 02:27:27;;;;;;;;;40.00;34.00;;;;;9.68;73.56;101736.13;5034847;28;45463;-70
2021/10/15 02:29:53;;;;;;;;;39.75;32.25;;;;;9.64;73.69;101726.59;5033731;28;45367;-70
2021/10/15 02:32:18;;;;;;;;;37.00;32.67;;;;;9.66;73.74;101724.81;5032753;28;54223;-70
2021/10/15 02:34:43;;;;;;;;;35.75;34.75;;;;;9.65;73.71;101727.47;5034591;28;45528;-70
2021/10/15 02:37:09;;;;;;;;;49.67;35.33;;;;;9.64;73.15;101718.72;5034745;28;45425;-70
2021/10/15 02:39:34;;;;;;;;;34.25;30.75;;;;;9.62;73.48;101719.69;5034927;28;45420;-70
2021/10/15 02:41:59;;;;;;;;;38.00;34.50;;;;;9.56;73.56;101706.72;5034127;28;45507;-70
2021/10/15 02:44:25;;;;;;;;;37.00;34.00;;;;;9.56;73.87;101715.44;5034282;28;48186;-70
2021/10/15 02:46:50;;;;;;;;;36.50;34.25;;;;;9.55;73.89;101718.06;5033409;28;45545;-71
2021/10/15 02:49:16;;;;;;;;;45.25;36.50;;;;;9.56;73.80;101717.19;5033435;28;45374;-70
2021/10/15 02:51:41;;;;;;;;;39.50;33.50;;;;;9.55;73.59;101716.34;5034461;28;45412;-70
2021/10/15 02:54:06;;;;;;;;;41.00;36.00;;;;;9.53;73.63;101706.75;5034464;28;45311;-70
2021/10/15 02:56:32;;;;;;;;;44.75;35.25;;;;;9.53;73.27;101717.25;5033954;28;45821;-70
2021/10/15 02:58:58;;;;;;;;;33.75;29.25;;;;;9.49;73.80;101710.34;5033929;28;45588;-70
2021/10/15 03:01:24;;;;;;;;;41.00;32.50;;;;;9.52;73.53;101710.28;5033213;28;45561;-70
2021/10/15 03:03:50;;;;;;;;;41.00;34.25;;;;;9.52;73.54;101712.91;5034812;28;45539;-70
2021/10/15 03:06:15;;;;;;;;;37.75;33.25;;;;;9.51;73.85;101711.19;5033287;28;45639;-70
2021/10/15 03:08:41;;;;;;;;;37.25;34.00;;;;;9.49;73.73;101719.06;5033617;28;45567;-70
2021/10/15 03:11:06;;;;;;;;;39.50;33.50;;;;;9.45;73.47;101711.31;5033927;28;45332;-70
2021/10/15 03:13:32;;;;;;;;;35.75;32.50;;;;;9.45;73.80;101706.94;5034422;28;45395;-70
2021/10/15 03:15:57;;;;;;;;;41.25;33.75;;;;;9.45;73.65;101704.34;5033901;28;45508;-70
2021/10/15 03:18:24;;;;;;;;;42.00;36.25;;;;;9.39;73.87;101684.31;5033394;28;46106;-70
2021/10/15 03:20:50;;;;;;;;;39.25;32.75;;;;;9.46;73.72;101706.03;5031713;28;45976;-70
2021/10/15 03:23:15;;;;;;;;;41.75;33.00;;;;;9.45;73.89;101704.34;5033656;28;45473;-70
2021/10/15 03:25:40;;;;;;;;;38.00;33.25;;;;;9.18;73.32;101655.09;5033781;28;45399;-70
2021/10/15 03:28:06;;;;;;;;;43.00;35.67;;;;;9.44;73.81;101694.72;5033761;28;57854;-70
2021/10/15 03:30:32;;;;;;;;;39.50;36.75;;;;;9.40;73.84;101691.31;5031482;28;50510;-70
2021/10/15 03:32:58;;;;;;;;;39.75;29.75;;;;;9.40;73.77;101695.69;5033251;28;45564;-70
2021/10/15 03:35:23;;;;;;;;;43.00;33.25;;;;;9.33;74.04;101673.09;5033428;28;45274;-70
2021/10/15 03:37:49;;;;;;;;;38.50;31.00;;;;;9.40;74.07;101691.31;5033522;28;45331;-70
2021/10/15 03:40:14;;;;;;;;;36.25;32.00;;;;;9.40;73.74;101683.44;5033654;28;45372;-70
2021/10/15 03:42:40;;;;;;;;;50.50;35.00;;;;;9.41;73.50;101687.78;5034421;28;45431;-70
2021/10/15 03:45:07;;;;;;;;;44.50;37.75;;;;;9.37;73.77;101680.00;5032026;28;45512;-70
2021/10/15 03:47:33;;;;;;;;;37.25;34.00;;;;;9.43;74.05;101684.25;5033074;28;46394;-70
2021/10/15 03:49:59;;;;;;;;;37.50;30.75;;;;;9.43;73.87;101693.00;5033842;28;45463;-70
2021/10/15 03:52:24;;;;;;;;;40.50;33.75;;;;;9.35;73.57;101680.06;5033833;28;45494;-70
2021/10/15 03:54:49;;;;;;;;;39.00;33.50;;;;;9.40;73.63;101696.56;5034291;28;45503;-70
2021/10/15 03:57:15;;;;;;;;;40.00;33.75;;;;;9.34;73.97;101685.31;5033166;28;45661;-70
2021/10/15 03:59:40;;;;;;;;;38.00;34.75;;;;;9.41;73.88;101702.66;5033060;28;45487;-70
2021/10/15 04:02:06;;;;;;;;;40.00;36.33;;;;;9.41;74.17;101694.78;5033170;28;45498;-70
2021/10/15 04:04:31;;;;;;;;;46.00;36.75;;;;;9.38;74.23;101685.22;5036529;28;45320;-70
2021/10/15 04:06:57;;;;;;;;;47.00;36.00;;;;;9.43;74.47;101693.00;5035633;28;45528;-70
2021/10/15 04:09:22;;;;;;;;;43.50;35.00;;;;;9.45;74.47;101690.31;5036937;28;45281;-70
2021/10/15 04:11:48;;;;;;;;;43.25;37.00;;;;;9.47;74.57;101692.03;5036771;28;45676;-70
2021/10/15 04:14:13;;;;;;;;;39.25;35.75;;;;;9.49;74.69;101682.34;5036784;28;45574;-70
2021/10/15 04:16:39;;;;;;;;;40.75;35.25;;;;;9.51;74.61;101685.81;5036145;28;45869;-70
2021/10/15 04:19:05;;;;;;;;;43.25;35.75;;;;;9.54;74.96;101690.13;5036047;28;45411;-70
2021/10/15 04:21:30;;;;;;;;;39.75;36.25;;;;;9.52;74.79;101682.28;5036949;28;45537;-70
2021/10/15 04:23:55;;;;;;;;;37.50;35.00;;;;;9.54;74.50;101675.22;5036229;28;45339;-70
2021/10/15 04:26:21;;;;;;;;;37.75;35.50;;;;;9.60;74.86;101682.94;5036212;28;45793;-70
2021/10/15 04:28:46;;;;;;;;;38.75;34.75;;;;;9.63;74.34;101682.03;5015938;28;45359;-70
2021/10/15 04:31:12;;;;;;;;;45.25;35.75;;;;;9.59;74.83;101665.47;5035713;28;45447;-70
2021/10/15 04:33:37;;;;;;;;;41.25;35.00;;;;;9.68;74.74;101681.03;5037034;28;45529;-70
2021/10/15 04:36:03;;;;;;;;;43.75;38.00;;;;;9.72;74.75;101668.69;5021747;28;47217;-70
2021/10/15 04:38:28;;;;;;;;;46.25;37.00;;;;;9.76;74.82;101674.72;5036068;28;45363;-70
2021/10/15 04:40:53;;;;;;;;;41.50;34.00;;;;;9.77;74.99;101669.44;5036612;28;45432;-70
2021/10/15 04:43:19;;;;;;;;;51.00;40.25;;;;;9.79;74.89;101666.78;5035839;28;45431;-70
2021/10/15 04:45:44;;;;;;;;;91.00;64.00;;;;;9.77;74.71;101655.47;5041603;28;45518;-70
2021/10/15 04:48:09;;;;;;;;;96.50;74.25;;;;;9.78;74.83;101649.31;5037302;28;45461;-70
2021/10/15 04:50:36;;;;;;;;;82.00;55.50;;;;;9.84;74.74;101657.03;5039394;28;45368;-70
2021/10/15 04:53:03;;;;;;;;;73.25;55.00;;;;;9.84;74.84;101659.66;5034556;28;45542;-70
2021/10/15 04:55:29;;;;;;;;;87.00;62.25;;;;;9.83;74.67;101660.56;5035048;28;45449;-70
2021/10/15 04:57:57;;;;;;;;;48.50;35.50;;;;;9.78;74.65;101641.44;5035282;28;45361;-70
2021/10/15 05:00:23;;;;;;;;;45.50;39.00;;;;;9.80;74.90;101653.59;5040204;28;45635;-70
2021/10/15 05:02:51;;;;;;;;;55.25;43.50;;;;;9.76;74.67;101648.47;5035098;28;45892;-70
2021/10/15 05:05:20;;;;;;;;;47.50;39.50;;;;;9.71;74.23;101650.34;5035717;28;45299;-70
2021/10/15 05:07:45;;;;;;;;;55.00;43.75;;;;;9.71;74.41;101653.84;5036145;28;45992;-70
2021/10/15 05:10:11;;;;;;;;;57.75;46.50;;;;;9.70;74.84;101656.50;5035085;28;45306;-70
2021/10/15 05:12:38;;;;;;;;;45.75;36.75;;;;;9.67;74.78;101660.94;5035349;28;45424;-70
2021/10/15 05:15:07;;;;;;;;;49.75;40.75;;;;;9.65;74.65;101653.97;5035431;28;45637;-70
2021/10/15 05:17:35;;;;;;;;;45.50;37.50;;;;;9.63;74.34;101650.53;5035072;28;45520;-70
2021/10/15 05:20:01;;;;;;;;;39.25;34.25;;;;;9.58;74.69;101636.66;5035201;28;45383;-70
2021/10/15 05:22:26;;;;;;;;;39.25;35.25;;;;;9.58;74.95;101642.78;5035269;28;45751;-70
2021/10/15 05:24:51;;;;;;;;;40.00;28.75;;;;;9.56;74.48;101649.84;5043411;28;45633;-70
2021/10/15 05:27:17;;;;;;;;;42.67;36.67;;;;;9.56;74.71;101643.72;5016161;28;53167;-70
2021/10/15 05:29:47;;;;;;;;;42.75;34.00;;;;;9.49;74.30;101634.25;5033095;28;46014;-70
2021/10/15 05:32:13;;;;;;;;;38.25;35.75;;;;;9.54;74.58;101646.38;5033063;28;45849;-70
2021/10/15 05:34:38;;;;;;;;;44.75;37.00;;;;;9.52;74.59;101645.56;5032883;28;45549;-70
2021/10/15 05:37:04;;;;;;;;;44.33;34.00;;;;;9.54;74.63;101654.22;5037332;28;50807;-70
2021/10/15 05:39:29;;;;;;;;;41.00;35.33;;;;;9.54;74.61;101659.47;5035579;28;45320;-70
2021/10/15 05:41:54;;;;;;;;;37.75;32.25;;;;;9.52;74.47;101650.78;5035186;28;46005;-70
2021/10/15 05:44:20;;;;;;;;;40.33;34.33;;;;;9.53;74.47;101655.16;5034456;28;58232;-70
2021/10/15 05:46:45;;;;;;;;;45.00;36.00;;;;;9.52;74.38;101650.78;5035147;28;53199;-70
2021/10/15 05:49:10;;;;;;;;;42.33;38.67;;;;;9.47;74.76;101643.94;5035214;28;45389;-70
2021/10/15 05:51:39;;;;;;;;;42.75;35.50;;;;;9.54;74.70;101649.00;5035802;28;45540;-70
2021/10/15 05:54:05;;;;;;;;;45.50;38.00;;;;;9.54;75.19;101646.38;5035033;28;46146;-70
2021/10/15 05:59:03;;;;;;;;;48.75;39.00;;;;;9.56;75.11;101655.09;5035733;28;45322;-70
2021/10/15 06:01:30;;;;;;;;;40.50;36.25;;;;;9.57;75.40;101651.56;5034645;28;45563;-70
2021/10/15 06:14:33;;;;;;;;;40.25;36.25;;;;;9.60;75.32;101666.34;5033912;28;45512;-69
2021/10/15 06:17:10;;;;;;;;;45.25;35.25;;;;;9.56;75.54;101660.34;5034499;28;45439;-72
2021/10/15 06:20:09;;;;;;;;;44.25;37.25;;;;;9.61;75.06;101670.72;5033864;28;45584;-72
2021/10/15 06:22:28;;;;;;;;;50.00;39.50;;;;;9.67;75.42;101666.19;5027264;28;45530;-70
2021/10/15 06:24:55;;;;;;;;;44.00;36.25;;;;;9.70;75.40;101673.09;5031539;28;46354;-70
2021/10/15 06:27:22;;;;;;;;;48.25;38.00;;;;;9.73;75.75;101680.91;5033305;28;45783;-70
2021/10/15 06:29:50;;;;;;;;;44.25;38.25;;;;;9.74;75.55;101677.38;5034233;28;45569;-70
2021/10/15 06:32:21;;;;;;;;;39.75;34.50;;;;;9.82;75.55;101677.22;5033490;28;45627;-70
2021/10/15 06:34:47;;;;;;;;;42.00;35.25;;;;;9.89;75.23;101684.88;5034159;28;46161;-70
2021/10/15 06:37:12;;;;;;;;;38.25;35.25;;;;;9.95;75.31;101681.25;5032765;28;45454;-70
2021/10/15 06:39:38;;;;;;;;;36.00;30.00;;;;;10.03;75.41;101683.69;5042119;28;45449;-70
2021/10/15 06:42:04;;;;;;;;;40.75;36.25;;;;;10.09;74.91;101675.66;5040643;28;45478;-70
2021/10/15 06:44:29;;;;;;;;;41.25;33.25;;;;;10.14;75.15;101684.25;5038199;28;45567;-70
2021/10/15 06:46:55;;;;;;;;;37.00;32.50;;;;;10.21;74.81;101675.31;5043091;28;45738;-70
2021/10/15 06:49:20;;;;;;;;;40.00;35.25;;;;;10.27;74.92;101680.44;5034695;28;45341;-70
2021/10/15 06:51:46;;;;;;;;;36.75;33.00;;;;;10.32;74.83;101675.91;5041108;28;45285;-70
2021/10/15 06:54:12;;;;;;;;;41.75;34.75;;;;;10.36;74.60;101674.06;5035794;28;45513;-70
2021/10/15 06:56:37;;;;;;;;;35.75;33.50;;;;;10.40;74.25;101668.69;5033298;28;45485;-70
2021/10/15 06:59:04;;;;;;;;;41.00;35.33;;;;;10.49;74.55;101671.97;5038420;28;45521;-70
2021/10/15 07:01:30;;;;;;;;;42.00;32.75;;;;;10.53;74.11;101669.22;5034019;28;45523;-70
2021/10/15 07:03:55;;;;;;;;;40.50;37.00;;;;;10.60;74.37;101676.03;5015247;28;47367;-70
2021/10/15 07:06:21;;;;;;;;;45.75;36.00;;;;;10.74;74.19;101672.16;5040550;28;46314;-70
2021/10/15 07:08:46;;;;;;;;;54.50;38.00;;;;;10.87;73.80;101660.38;5045798;28;45346;-70
2021/10/15 07:11:13;;;;;;;;;44.25;36.00;;;;;11.09;73.76;101668.50;5047317;28;45537;-70
2021/10/15 07:13:38;;;;;;;;;40.25;31.50;;;;;11.15;73.42;101665.66;5041556;28;45567;-70
2021/10/15 07:16:04;;;;;;;;;44.75;35.25;;;;;11.30;73.31;101670.47;5033709;28;45536;-70
2021/10/15 07:18:29;;;;;;;;;46.50;38.25;;;;;11.42;72.97;101677.97;5038753;28;45443;-70
2021/10/15 07:20:54;;;;;;;;;71.00;54.00;;;;;11.52;72.96;101677.69;5033078;28;57290;-69
2021/10/15 07:23:19;;;;;;;;;58.67;42.33;;;;;11.58;72.48;101678.34;5033260;28;46949;-69
2021/10/15 07:25:45;;;;;;;;;45.50;39.00;;;;;11.76;72.68;101692.69;5041663;28;45465;-69
2021/10/15 07:28:11;;;;;;;;;54.50;42.00;;;;;12.03;72.36;101688.31;5039268;28;45536;-70
2021/10/15 07:30:37;;;;;;;;;49.75;38.00;;;;;12.45;72.12;101693.00;5037969;28;45378;-70
2021/10/15 07:33:02;;;;;;;;;48.25;38.25;;;;;13.05;71.39;101686.41;5037499;28;45975;-71
2021/10/15 07:35:27;;;;;;;;;46.00;39.50;;;;;13.63;70.14;101700.00;5038051;28;45354;-70
2021/10/15 07:37:53;;;;;;;;;45.50;37.00;;;;;13.70;68.25;101695.31;5040109;28;45365;-70
2021/10/15 07:40:18;;;;;;;;;39.25;34.75;;;;;13.57;67.92;101702.88;5037415;28;45333;-70
2021/10/15 07:42:43;;;;;;;;;43.50;36.25;;;;;13.49;67.99;101705.84;5041062;28;46290;-71
2021/10/15 07:45:09;;;;;;;;;72.50;54.25;;;;;13.43;67.94;101699.94;5035386;28;45364;-71
2021/10/15 07:47:34;;;;;;;;;48.00;36.25;;;;;13.64;68.36;101706.16;5036765;28;45684;-70
2021/10/15 07:50:00;;;;;;;;;47.75;36.00;;;;;14.51;67.88;101702.47;5036483;28;45470;-70
2021/10/15 07:52:25;;;;;;;;;39.67;35.00;;;;;15.75;66.54;101702.03;5035916;28;52002;-71
2021/10/15 07:54:51;;;;;;;;;42.25;33.50;;;;;16.71;64.58;101694.50;5037018;28;45278;-71
2021/10/15 07:57:16;;;;;;;;;39.75;35.00;;;;;17.83;62.58;101704.22;5035774;28;45462;-72
2021/10/15 07:59:42;;;;;;;;;44.25;36.75;;;;;19.25;60.84;101682.22;5037031;28;45233;-72
2021/10/15 08:02:09;;;;;;;;;41.25;34.75;;;;;20.82;58.31;101692.13;5036310;28;46349;-72
2021/10/15 08:04:35;;;;;;;;;838.60;658.40;;;;;22.17;56.34;101691.09;5036036;28;45855;-72
2021/10/15 08:07:01;;;;;;;;;85.25;71.75;;;;;23.30;53.85;101689.34;5036685;28;45434;-73
2021/10/15 08:09:27;;;;;;;;;38.50;32.00;;;;;24.26;51.82;101683.97;5032409;28;45598;-72
2021/10/15 08:11:52;;;;;;;;;48.25;38.25;;;;;25.23;50.52;101676.41;5040978;28;46312;-72
2021/10/15 08:14:19;;;;;;;;;46.25;37.25;;;;;26.11;48.46;101693.47;5040829;28;45465;-72
2021/10/15 08:16:45;;;;;;;;;43.75;35.75;;;;;26.39;46.60;101678.25;5041953;28;45950;-73
2021/10/15 08:19:10;;;;;;;;;38.75;34.25;;;;;26.47;46.00;101699.97;5038330;28;45268;-72
2021/10/15 08:21:35;;;;;;;;;47.00;34.50;;;;;26.51;46.63;101686.03;5042002;28;46229;-73
2021/10/15 08:24:01;;;;;;;;;38.25;34.50;;;;;26.39;44.40;101689.03;5041253;28;45404;-72
2021/10/15 08:26:26;;;;;;;;;38.00;33.25;;;;;25.94;44.24;101695.88;5040744;28;45375;-73
2021/10/15 08:28:58;;;;;;;;;40.00;35.50;;;;;25.20;44.20;101696.34;5042402;28;45478;-73
2021/10/15 08:31:23;;;;;;;;;44.50;35.50;;;;;24.53;45.48;101696.88;5039998;28;46366;-73
2021/10/15 08:33:49;;;;;;;;;44.00;36.25;;;;;23.90;45.08;101696.00;5040979;28;45363;-73
2021/10/15 08:36:15;;;;;;;;;47.75;40.25;;;;;23.51;45.51;101690.28;5040070;28;45550;-72
2021/10/15 08:38:40;;;;;;;;;45.25;38.00;;;;;23.40;45.64;101695.66;5043891;28;45379;-73
2021/10/15 08:41:06;;;;;;;;;44.25;37.25;;;;;23.42;45.93;101702.59;5044789;28;45355;-72
2021/10/15 08:43:37;;;;;;;;;47.50;40.50;;;;;23.40;45.14;101699.19;5035317;28;45462;-72
2021/10/15 08:46:03;;;;;;;;;55.25;41.50;;;;;23.33;45.90;101702.50;5034840;28;45875;-71
2021/10/15 08:48:29;;;;;;;;;47.50;39.75;;;;;23.13;45.80;101702.31;5035682;28;45608;-71
2021/10/15 08:50:57;;;;;;;;;49.50;39.25;;;;;22.96;45.58;101701.94;5035188;28;45910;-71
2021/10/15 08:53:23;;;;;;;;;53.00;40.25;;;;;22.88;45.95;101706.09;5035216;28;45961;-71
2021/10/15 08:55:49;;;;;;;;;53.00;42.25;;;;;23.22;45.66;101703.38;5036203;28;45316;-71
2021/10/15 08:58:14;;;;;;;;;51.50;41.25;;;;;23.44;45.51;101699.81;5035369;28;45459;-69
2021/10/15 09:00:40;;;;;;;;;54.00;42.25;;;;;23.64;44.89;101708.91;5036540;28;45272;-70
2021/10/15 09:03:22;;;;;;;;;50.00;37.75;;;;;24.00;44.44;101706.81;5035147;28;45529;-69
2021/10/15 09:06:05;;;;;;;;;46.75;39.00;;;;;24.81;43.62;101705.25;5035205;28;45435;-69
2021/10/15 09:08:50;;;;;;;;;51.75;38.25;;;;;25.12;42.70;101711.50;5035518;28;45508;-71
2021/10/15 09:12:05;;;;;;;;;46.75;38.25;;;;;24.79;42.81;101712.56;5033588;28;45537;-71
2021/10/15 09:14:30;;;;;;;;;47.75;38.50;;;;;24.97;43.32;101711.81;4933736;28;45801;-71
2021/10/15 09:17:13;;;;;;;;;49.50;40.75;;;;;25.22;42.80;101715.91;4931376;28;45347;-71
2021/10/15 09:19:50;;;;;;;;;49.25;37.50;;;;;25.40;42.25;101715.22;4932151;28;45537;-71
2021/10/15 09:22:32;;;;;;;;;49.75;38.75;;;;;25.63;41.75;101719.41;4936665;28;47038;-71
2021/10/15 09:25:09;;;;;;;;;49.75;40.00;;;;;25.96;41.16;101714.63;4932565;28;45636;-71
2021/10/15 09:27:39;;;;;;;;;51.75;40.50;;;;;26.32;40.38;101717.56;4935809;28;45341;-71
2021/10/15 09:30:06;;;;;;;;;48.25;39.75;;;;;26.71;40.07;101713.78;4933381;28;45568;-70
2021/10/15 09:32:38;;;;;;;;;50.75;40.75;;;;;27.03;39.57;101715.19;4931528;28;45531;-71
2021/10/15 09:35:05;;;;;;;;;51.25;40.75;;;;;27.07;39.62;101716.66;4933338;28;45914;-71
2021/10/15 09:37:33;;;;;;;;;54.25;41.75;;;;;26.81;38.80;101727.22;4933599;28;45666;-71
2021/10/15 09:40:01;;;;;;;;;53.50;41.25;;;;;26.40;39.79;101721.22;4934636;28;45361;-71
2021/10/15 09:42:29;;;;;;;;;52.50;42.50;;;;;26.45;40.00;101723.50;4934068;28;45319;-71
2021/10/15 09:45:01;;;;;;;;;51.25;41.25;;;;;26.74;39.58;101735.06;4975173;28;46020;-71
2021/10/15 09:47:28;;;;;;;;;52.75;41.00;;;;;26.84;39.47;101715.31;5035184;28;45481;-71
2021/10/15 09:49:53;;;;;;;;;50.00;40.50;;;;;27.04;39.30;101739.34;5034994;28;45571;-71
2021/10/15 09:52:34;;;;;;;;;54.00;42.75;;;;;27.50;39.21;101731.31;5034909;28;45870;-71
2021/10/15 09:55:25;;;;;;;;;50.50;41.25;;;;;27.68;38.09;101728.66;5031740;28;45507;-71
2021/10/15 09:57:53;;;;;;;;;52.50;41.25;;;;;27.31;38.17;101726.91;5031597;28;45457;-71
2021/10/15 10:00:24;;;;;;;;;55.50;42.75;;;;;26.86;38.85;101703.38;5033466;28;45473;-71
2021/10/15 10:02:50;;;;;;;;;86.75;76.25;;;;;27.00;38.90;101727.16;5033478;28;45498;-71
2021/10/15 10:05:18;;;;;;;;;53.00;42.25;;;;;27.17;38.76;101733.63;5014687;28;46096;-71
2021/10/15 10:07:46;;;;;;;;;54.00;43.50;;;;;27.39;38.13;101735.06;5034869;28;45493;-71
2021/10/15 10:10:14;;;;;;;;;50.50;39.00;;;;;27.46;37.74;101733.47;5034648;28;45387;-71
2021/10/15 10:12:40;;;;;;;;;48.50;39.25;;;;;27.24;37.92;101732.03;5033718;28;46399;-71
2021/10/15 10:15:10;;;;;;;;;56.75;44.25;;;;;27.10;38.18;101732.53;5016385;28;45893;-71
2021/10/15 10:17:41;;;;;;;;;52.25;42.50;;;;;27.18;38.16;101737.19;5033490;28;45573;-71
2021/10/15 10:20:14;;;;;;;;;57.25;44.00;;;;;27.22;38.11;101728.63;5034178;28;45355;-71
2021/10/15 10:23:22;;;;;;;;;48.50;39.50;;;;;27.10;38.00;101727.16;5034801;28;45696;-71
2021/10/15 10:25:47;;;;;;;;;48.50;40.75;;;;;26.89;37.86;101734.59;5021826;28;45947;-71
2021/10/15 10:28:19;;;;;;;;;48.75;41.25;;;;;26.60;37.79;101727.44;5035267;28;45474;-71
2021/10/15 10:30:50;;;;;;;;;52.75;41.75;;;;;26.28;37.74;101742.09;5034849;28;45420;-71
2021/10/15 10:33:17;;;;;;;;;51.25;38.50;;;;;26.10;38.80;101733.03;5033928;28;46134;-71
2021/10/15 10:35:43;;;;;;;;;53.75;41.75;;;;;25.86;38.96;101741.53;5033799;28;45451;-71
2021/10/15 10:38:18;;;;;;;;;45.75;37.25;;;;;25.57;39.19;101752.22;5034420;28;45350;-71
2021/10/15 10:41:01;;;;;;;;;46.50;39.25;;;;;25.37;39.59;101740.59;5034536;28;45439;-71
2021/10/15 10:43:32;;;;;;;;;48.00;39.00;;;;;25.16;40.17;101739.78;5021326;28;45225;-71
2021/10/15 10:46:15;;;;;;;;;46.50;39.25;;;;;24.85;39.96;101733.53;5033601;28;45479;-71
2021/10/15 10:48:46;;;;;;;;;47.25;39.00;;;;;24.62;40.67;101730.19;5034685;28;45434;-71
2021/10/15 10:51:24;;;;;;;;;46.25;37.50;;;;;24.48;40.86;101742.09;5033555;28;45412;-71
2021/10/15 10:54:08;;;;;;;;;47.25;37.25;;;;;24.39;40.68;101743.78;5033374;28;46183;-71
2021/10/15 10:56:39;;;;;;;;;50.00;40.00;;;;;24.41;40.81;101733.72;5033243;28;45478;-71
2021/10/15 10:59:20;;;;;;;;;50.50;39.25;;;;;24.36;40.66;101740.47;5032959;28;45524;-71
2021/10/15 11:01:45;;;;;;;;;43.50;37.00;;;;;24.23;41.32;101740.66;5033376;28;45487;-71
2021/10/15 11:04:31;;;;;;;;;45.50;37.50;;;;;24.12;41.63;101738.88;5033450;28;45409;-71
2021/10/15 11:07:00;;;;;;;;;49.75;39.50;;;;;24.16;41.72;101736.78;5029745;28;46022;-70
2021/10/15 11:09:52;;;;;;;;;49.00;37.00;;;;;24.21;41.67;101737.22;5033157;28;45363;-71
2021/10/15 11:12:27;;;;;;;;;46.50;35.50;;;;;24.11;41.38;101733.63;5032965;28;45334;-71
2021/10/15 11:14:59;;;;;;;;;39.25;34.25;;;;;24.06;41.70;101734.00;5026790;28;47142;-70
2021/10/15 11:17:24;;;;;;;;;40.00;32.50;;;;;24.10;42.02;101731.91;5029980;28;46172;-70
2021/10/15 11:20:10;;;;;;;;;45.00;34.25;;;;;24.16;42.02;101724.19;5031286;28;45332;-70
2021/10/15 11:22:37;;;;;;;;;39.75;34.25;;;;;24.17;42.21;101716.97;5028538;28;45872;-70
2021/10/15 11:25:03;;;;;;;;;40.00;32.00;;;;;24.22;41.63;101720.13;5030710;28;46205;-70
2021/10/15 11:27:29;;;;;;;;;38.50;32.00;;;;;24.15;42.34;101717.13;5030509;28;45916;-71